Sumiwakamaru No.3 — JL6169 — position and weather

sailwx.info

Track history (hours):
 
Tides and Currents Weather Stations Pressure Air Temp Water Temp Dewpoint Dewpoint Depression Visibility Wind Speed Wind Dir Waves Ship Positions

Sumiwakamaru No.3

Last reported at 2018-Jun-05 09:46 UTC. Time now 2018-Jun-22 01:24 UTC.
Position N 35°23' E 139°43'.
Warning: this ship's position is 16 days out of date.

Length 70 m.

Type: Cargo ship. MMSI: 431500108.

Date/timePositionNaut miles runAvg speedWind from/ knotsBaromVisibWave heightAir tempDewpointWater temp
2018-Jun-05 09:46N 35°23' E 139°43'3 0.4
2018-Jun-05 02:48N 35°21' E 139°45'  
2018-May-31 02:26N 35°04' E 139°44'511.8
2018-May-31 01:59N 35°09' E 139°46'912.0
2018-May-31 01:14N 35°18' E 139°44'311.7
2018-May-31 01:00N 35°20' E 139°42'611.0
2018-May-31 00:30N 35°25' E 139°45'4 0.1
2018-May-29 06:57N 35°22' E 139°45'1011.3
2018-May-29 06:04N 35°12' E 139°47'112.2
2018-May-29 06:00N 35°11' E 139°46'611.7
2018-May-29 05:29N 35°06' E 139°43'611.7
2018-May-29 05:00N 35°02' E 139°38'  
Track history (hours):
 
Tides and Currents Weather Stations Pressure Air Temp Water Temp Dewpoint Dewpoint Depression Visibility Wind Speed Wind Dir Waves Ship Positions

Sumiwakamaru No.3

Last reported at 2018-Jun-05 09:46 UTC. Time now 2018-Jun-22 01:24 UTC.
Position N 35°23' E 139°43'.
Warning: this ship's position is 16 days out of date.

Length 70 m.

Type: Cargo ship. MMSI: 431500108.

Date/timePositionNaut miles runAvg speedWind from/ knotsBaromVisibWave heightAir tempDewpointWater temp
2018-Jun-05 09:46N 35°23' E 139°43'3 0.4
2018-Jun-05 02:48N 35°21' E 139°45'  
2018-May-31 02:26N 35°04' E 139°44'511.8
2018-May-31 01:59N 35°09' E 139°46'912.0
2018-May-31 01:14N 35°18' E 139°44'311.7
2018-May-31 01:00N 35°20' E 139°42'611.0
2018-May-31 00:30N 35°25' E 139°45'4 0.1
2018-May-29 06:57N 35°22' E 139°45'1011.3
2018-May-29 06:04N 35°12' E 139°47'112.2
2018-May-29 06:00N 35°11' E 139°46'611.7
2018-May-29 05:29N 35°06' E 139°43'611.7
2018-May-29 05:00N 35°02' E 139°38'  

Dump ship's entire track history